Terminal Aerodrome Forecast
Issued by NWS

Current Version | Previous Version | Text Only | Print | Product List | Glossary Off
Versions: 1 2 3 4 5 6 7 8 9 10 11 12

000
FTUS41 KPBZ 241700
TAFMGW
TAF
KMGW 241722Z 2418/2518 10005KT P6SM SCT035
     FM242300 00000KT P6SM FEW250
     FM251500 14003KT P6SM SCT250=

USA.gov is the U.S. government's official web portal to all federal, state and local government web resources and services.